createdAt,value
2018-11-14T00:00:44.325Z,86.19
2018-11-14T00:01:43.980Z,86.30
2018-11-14T00:02:44.247Z,86.71
2018-11-14T00:03:44.668Z,86.30
2018-11-14T00:04:43.947Z,86.71
2018-11-14T00:05:43.940Z,86.60
2018-11-14T00:06:44.030Z,86.09
2018-11-14T00:07:43.914Z,86.30
2018-11-14T00:08:43.904Z,86.50
2018-11-14T00:09:44.267Z,86.40
2018-11-14T00:10:43.886Z,86.57
2018-11-14T00:11:43.870Z,86.30
2018-11-14T00:12:43.933Z,86.46
2018-11-14T00:13:43.861Z,86.40
2018-11-14T00:14:43.841Z,86.30
2018-11-14T00:15:43.863Z,86.19
2018-11-14T00:16:44.108Z,86.36
2018-11-14T00:17:43.807Z,86.25
2018-11-14T00:18:43.879Z,85.85
2018-11-14T00:19:43.786Z,85.64
2018-11-14T00:20:43.783Z,85.23
2018-11-14T00:21:43.798Z,85.27
2018-11-14T00:22:43.756Z,85.89
2018-11-14T00:23:44.049Z,86.36
2018-11-14T00:24:44.678Z,86.91
2018-11-14T00:25:43.722Z,86.60
2018-11-14T00:26:43.773Z,86.15
2018-11-14T00:27:43.752Z,85.89
2018-11-14T00:28:43.692Z,85.99
2018-11-14T00:29:43.683Z,86.15
2018-11-14T00:30:44.034Z,85.54
2018-11-14T00:31:43.668Z,85.68
2018-11-14T00:32:43.648Z,86.30
2018-11-14T00:33:43.645Z,86.09
2018-11-14T00:34:43.685Z,85.89
2018-11-14T00:35:43.646Z,86.40
2018-11-14T00:36:43.674Z,86.36
2018-11-14T00:37:43.870Z,86.36
2018-11-14T00:38:43.583Z,86.15
2018-11-14T00:39:43.575Z,86.15
2018-11-14T00:40:43.564Z,86.66
2018-11-14T00:41:43.551Z,85.38
2018-11-14T00:42:43.783Z,85.23
2018-11-14T00:43:43.529Z,85.74
2018-11-14T00:44:43.804Z,85.95
2018-11-14T00:45:43.507Z,86.15
2018-11-14T00:46:43.496Z,85.23
2018-11-14T00:47:43.485Z,85.23
2018-11-14T00:48:43.544Z,85.23
2018-11-14T00:49:43.465Z,85.23
2018-11-14T00:50:43.451Z,85.19
2018-11-14T00:51:43.725Z,85.23
2018-11-14T00:52:43.433Z,84.92
2018-11-14T00:53:43.422Z,85.23
2018-11-14T00:54:43.487Z,85.33
2018-11-14T00:55:43.400Z,85.44
2018-11-14T00:56:43.388Z,84.88
2018-11-14T00:57:43.384Z,84.82
2018-11-14T00:58:43.643Z,85.03
2018-11-14T00:59:43.359Z,85.23
2018-11-14T01:00:43.425Z,85.64
2018-11-14T01:01:43.428Z,85.47
2018-11-14T01:02:43.326Z,85.17
2018-11-14T01:03:43.313Z,85.03
2018-11-14T01:04:43.303Z,85.68
2018-11-14T01:05:43.595Z,85.27
2018-11-14T01:06:43.351Z,85.06
2018-11-14T01:07:43.271Z,85.54
2018-11-14T01:08:43.267Z,85.47
2018-11-14T01:09:43.250Z,85.23
2018-11-14T01:10:43.237Z,85.27
2018-11-14T01:11:43.228Z,85.78
2018-11-14T01:12:43.592Z,85.85
2018-11-14T01:13:43.212Z,85.27
2018-11-14T01:14:43.194Z,85.89
2018-11-14T01:15:43.188Z,86.40
2018-11-14T01:16:43.172Z,86.19
2018-11-14T01:17:43.164Z,86.50
2018-11-14T01:18:43.249Z,85.06
2018-11-14T01:19:43.435Z,85.33
2018-11-14T01:20:43.131Z,85.33
2018-11-14T01:21:43.133Z,84.72
2018-11-14T01:22:43.112Z,84.92
2018-11-14T01:23:43.143Z,84.61
2018-11-14T01:24:43.156Z,85.44
2018-11-14T01:25:43.080Z,84.92
2018-11-14T01:26:43.066Z,85.64
2018-11-14T01:27:43.061Z,85.54
2018-11-14T01:28:43.049Z,85.23
2018-11-14T01:29:43.032Z,85.23
2018-11-14T01:30:43.090Z,85.13
2018-11-14T01:31:43.011Z,85.54
2018-11-14T01:32:43.285Z,85.23
2018-11-14T01:33:42.987Z,85.27
2018-11-14T01:34:42.977Z,84.92
2018-11-14T01:35:43.046Z,85.23
2018-11-14T01:36:43.446Z,85.13
2018-11-14T01:37:42.943Z,85.23
2018-11-14T01:38:42.933Z,85.23
2018-11-14T01:39:42.922Z,84.92
2018-11-14T01:40:42.919Z,85.13
2018-11-14T01:41:42.905Z,84.82
2018-11-14T01:42:42.955Z,85.13
2018-11-14T01:43:42.878Z,85.64
2018-11-14T01:44:43.167Z,85.13
2018-11-14T01:45:42.858Z,85.54
2018-11-14T01:46:42.847Z,84.92
2018-11-14T01:47:42.837Z,84.92
2018-11-14T01:48:42.898Z,85.03
2018-11-14T01:49:42.812Z,84.92
2018-11-14T01:50:42.802Z,85.13
2018-11-14T01:51:42.792Z,84.82
2018-11-14T01:52:42.780Z,85.44
2018-11-14T01:53:42.768Z,84.82
2018-11-14T01:54:43.000Z,84.92
2018-11-14T01:55:42.748Z,84.82
2018-11-14T01:56:42.737Z,84.41
2018-11-14T01:57:42.728Z,84.72
2018-11-14T01:58:42.715Z,84.41
2018-11-14T01:59:42.709Z,84.92
2018-11-14T02:00:42.762Z,84.92
2018-11-14T02:01:42.682Z,84.92
2018-11-14T02:02:42.948Z,85.03
2018-11-14T02:03:42.660Z,84.92
2018-11-14T02:04:42.650Z,85.23
2018-11-14T02:05:42.638Z,85.13
2018-11-14T02:06:42.700Z,85.06
2018-11-14T02:07:42.618Z,85.68
2018-11-14T02:08:42.612Z,85.89
2018-11-14T02:09:42.874Z,86.46
2018-11-14T02:10:42.585Z,86.40
2018-11-14T02:11:42.575Z,86.09
2018-11-14T02:12:42.667Z,86.09
2018-11-14T02:13:42.551Z,86.40
2018-11-14T02:14:42.541Z,86.05
2018-11-14T02:15:42.530Z,86.19
2018-11-14T02:16:42.800Z,85.85
2018-11-14T02:17:42.508Z,85.17
2018-11-14T02:18:42.568Z,84.96
2018-11-14T02:19:42.488Z,85.27
2018-11-14T02:20:42.475Z,85.64
2018-11-14T02:21:42.465Z,85.23
2018-11-14T02:22:42.453Z,85.38
2018-11-14T02:23:42.739Z,85.27
2018-11-14T02:24:42.509Z,85.13
2018-11-14T02:25:42.421Z,85.99
2018-11-14T02:26:42.414Z,85.58
2018-11-14T02:27:42.399Z,85.68
2018-11-14T02:28:42.391Z,85.64
2018-11-14T02:29:42.378Z,85.13
2018-11-14T02:30:42.981Z,85.27
2018-11-14T02:31:42.356Z,85.03
2018-11-14T02:32:42.346Z,85.27
2018-11-14T02:33:42.334Z,85.27
2018-11-14T02:34:42.325Z,85.68
2018-11-14T02:35:42.315Z,85.89
2018-11-14T02:36:42.376Z,86.15
2018-11-14T02:37:42.617Z,86.25
2018-11-14T02:38:42.280Z,85.99
2018-11-14T02:39:42.312Z,86.05
2018-11-14T02:40:42.259Z,86.30
2018-11-14T02:41:42.248Z,85.89
2018-11-14T02:42:42.309Z,86.30
2018-11-14T02:43:42.231Z,86.50
2018-11-14T02:44:42.504Z,85.64
2018-11-14T02:45:42.212Z,86.30
2018-11-14T02:46:42.195Z,85.74
2018-11-14T02:47:42.186Z,85.06
2018-11-14T02:48:42.494Z,85.89
2018-11-14T02:49:42.161Z,85.33
2018-11-14T02:50:42.150Z,85.23
2018-11-14T02:51:42.446Z,85.33
2018-11-14T02:52:42.191Z,85.23
2018-11-14T02:53:42.119Z,85.23
2018-11-14T02:54:43.147Z,85.64
2018-11-14T02:55:42.101Z,85.33
2018-11-14T02:56:42.086Z,85.13
2018-11-14T02:57:42.645Z,85.03
2018-11-14T02:58:42.365Z,84.92
2018-11-14T02:59:42.055Z,85.23
2018-11-14T03:02:19.681Z,85.68
2018-11-14T03:03:19.509Z,85.38
2018-11-14T03:04:19.493Z,85.89
2018-11-14T03:05:19.482Z,85.27
2018-11-14T03:06:19.471Z,86.09
2018-11-14T03:07:19.464Z,85.89
2018-11-14T03:08:20.499Z,85.68
2018-11-14T03:09:19.441Z,85.68
2018-11-14T03:10:19.529Z,85.47
2018-11-14T03:11:19.443Z,85.27
2018-11-14T03:12:19.453Z,85.64
2018-11-14T03:13:19.398Z,85.17
2018-11-14T03:14:19.427Z,85.74
2018-11-14T03:15:19.650Z,85.23
2018-11-14T03:16:19.362Z,85.38
2018-11-14T03:17:19.354Z,84.92
2018-11-14T03:18:19.351Z,85.13
2018-11-14T03:19:19.337Z,85.23
2018-11-14T03:20:19.613Z,84.82
2018-11-14T03:21:19.328Z,85.64
2018-11-14T03:22:19.589Z,85.23
2018-11-14T03:23:19.292Z,85.23
2018-11-14T03:24:19.289Z,84.88
2018-11-14T03:25:19.270Z,85.03
2018-11-14T03:26:19.303Z,84.88
2018-11-14T03:27:19.252Z,84.99
2018-11-14T03:28:19.260Z,84.78
2018-11-14T03:29:19.555Z,84.88
2018-11-14T03:30:19.235Z,84.99
2018-11-14T03:31:19.211Z,84.58
2018-11-14T03:32:19.252Z,85.19
2018-11-14T03:33:19.187Z,84.88
2018-11-14T03:34:19.178Z,84.37
2018-11-14T03:35:19.169Z,83.96
2018-11-14T03:36:19.465Z,84.47
2018-11-14T03:37:19.142Z,84.58
2018-11-14T03:38:19.200Z,84.58
2018-11-14T03:39:19.123Z,84.99
2018-11-14T03:40:19.125Z,84.99
2018-11-14T03:41:19.108Z,84.37
2018-11-14T03:42:19.100Z,84.37
2018-11-14T03:43:19.408Z,84.58
2018-11-14T03:44:19.119Z,84.52
2018-11-14T03:45:19.058Z,84.92
2018-11-14T03:46:19.050Z,85.23
2018-11-14T03:47:19.038Z,85.23
2018-11-14T03:48:19.029Z,85.23
2018-11-14T03:49:19.017Z,85.23
2018-11-14T03:50:19.341Z,85.64
2018-11-14T03:51:18.993Z,85.23
2018-11-14T03:52:18.982Z,85.13
2018-11-14T03:53:18.970Z,85.13
2018-11-14T03:54:18.962Z,84.92
2018-11-14T03:55:19.535Z,84.52
2018-11-14T03:56:19.118Z,85.03
2018-11-14T03:57:18.925Z,85.74
2018-11-14T03:58:20.614Z,86.15
2018-11-14T03:59:18.897Z,86.52
2018-11-14T04:00:18.982Z,85.60
2018-11-14T04:01:18.886Z,85.30
2018-11-14T04:02:18.906Z,84.88
2018-11-14T04:03:18.855Z,85.09
2018-11-14T04:04:18.859Z,83.96
2018-11-14T04:05:18.888Z,84.58
2018-11-14T04:06:18.829Z,84.27
2018-11-14T04:07:18.818Z,84.37
2018-11-14T04:08:18.856Z,84.37
2018-11-14T04:09:18.842Z,84.37
2018-11-14T04:10:18.786Z,84.27
2018-11-14T04:11:18.778Z,84.47
2018-11-14T04:12:18.764Z,84.99
2018-11-14T04:13:18.754Z,84.78
2018-11-14T04:14:19.329Z,83.76
2018-11-14T04:15:18.726Z,83.96
2018-11-14T04:16:18.720Z,83.76
2018-11-14T04:17:18.715Z,83.96
2018-11-14T04:18:18.705Z,84.47
2018-11-14T04:19:18.691Z,83.86
2018-11-14T04:20:18.724Z,83.76
2018-11-14T04:21:18.954Z,84.58
2018-11-14T04:22:18.658Z,84.44
2018-11-14T04:23:18.639Z,84.37
2018-11-14T04:24:18.636Z,84.47
2018-11-14T04:25:18.621Z,84.37
2018-11-14T04:26:18.654Z,84.68
2018-11-14T04:27:18.604Z,84.58
2018-11-14T04:28:18.902Z,84.78
2018-11-14T04:29:18.580Z,84.17
2018-11-14T04:30:18.571Z,84.06
2018-11-14T04:31:18.556Z,84.37
2018-11-14T04:32:18.598Z,83.86
2018-11-14T04:33:18.535Z,83.76
2018-11-14T04:34:18.530Z,84.47
2018-11-14T04:35:18.824Z,84.37
2018-11-14T04:36:18.503Z,83.45
2018-11-14T04:37:18.498Z,83.45
2018-11-14T04:38:18.525Z,83.25
2018-11-14T04:39:18.472Z,84.00
2018-11-14T04:40:18.463Z,83.65
2018-11-14T04:41:18.471Z,83.14
2018-11-14T04:42:18.908Z,83.76
2018-11-14T04:43:18.436Z,84.47
2018-11-14T04:44:18.574Z,84.52
2018-11-14T04:45:18.407Z,84.00
2018-11-14T04:46:18.396Z,84.00
2018-11-14T04:47:18.392Z,85.13
2018-11-14T04:48:18.447Z,84.82
2018-11-14T04:49:18.660Z,84.92
2018-11-14T04:50:18.433Z,84.78
2018-11-14T04:51:18.348Z,84.99
2018-11-14T04:52:18.331Z,84.41
2018-11-14T04:53:18.321Z,84.78
2018-11-14T04:54:18.318Z,84.58
2018-11-14T04:55:18.299Z,84.92
2018-11-14T04:57:33.652Z,84.17
2018-11-14T04:58:33.312Z,84.61
2018-11-14T04:59:33.307Z,84.88
2018-11-14T05:00:33.292Z,84.58
2018-11-14T05:01:33.281Z,84.06
2018-11-14T05:02:33.302Z,84.17
2018-11-14T05:03:33.328Z,84.37
2018-11-14T05:04:33.250Z,83.96
2018-11-14T05:05:33.238Z,84.37
2018-11-14T05:06:33.232Z,84.37
2018-11-14T05:07:33.218Z,84.17
2018-11-14T05:08:33.209Z,83.96
2018-11-14T05:09:33.682Z,84.06
2018-11-14T05:10:33.186Z,84.88
2018-11-14T05:11:33.175Z,85.39
2018-11-14T05:12:33.168Z,85.03
2018-11-14T05:13:33.155Z,84.99
2018-11-14T05:14:33.145Z,84.72
2018-11-14T05:15:33.234Z,84.78
2018-11-14T05:16:33.416Z,85.23
2018-11-14T05:17:33.115Z,85.09
2018-11-14T05:18:33.109Z,84.82
2018-11-14T05:19:33.093Z,84.20
2018-11-14T05:20:33.085Z,84.41
2018-11-14T05:21:33.143Z,84.99
2018-11-14T05:22:33.069Z,83.80
2018-11-14T05:23:33.328Z,84.41
2018-11-14T05:24:33.093Z,85.09
2018-11-14T05:25:33.038Z,84.99
2018-11-14T05:26:33.019Z,84.78
2018-11-14T05:27:33.082Z,84.78
2018-11-14T05:28:33.004Z,84.88
2018-11-14T05:29:32.990Z,83.96
2018-11-14T05:30:33.254Z,84.99
2018-11-14T05:31:32.970Z,85.60
2018-11-14T05:32:32.957Z,85.60
2018-11-14T05:33:33.035Z,84.88
2018-11-14T05:34:32.939Z,83.96
2018-11-14T05:35:32.924Z,84.06
2018-11-14T05:36:32.919Z,83.96
2018-11-14T05:37:33.181Z,84.06
2018-11-14T05:38:32.893Z,84.68
2018-11-14T05:39:32.974Z,84.68
2018-11-14T05:40:32.869Z,85.39
2018-11-14T05:41:32.860Z,84.88
2018-11-14T05:42:34.194Z,85.50
2018-11-14T05:43:32.843Z,85.39
2018-11-14T05:44:33.250Z,84.82
2018-11-14T05:45:32.999Z,85.23
2018-11-14T05:46:32.806Z,85.23
2018-11-14T05:47:32.839Z,85.13
2018-11-14T05:48:32.851Z,85.03
2018-11-14T05:49:32.799Z,85.03
2018-11-14T05:50:32.835Z,85.13
2018-11-14T05:51:35.482Z,84.88
2018-11-14T05:52:32.745Z,84.99
2018-11-14T05:53:32.865Z,84.88
2018-11-14T05:54:32.725Z,84.99
2018-11-14T05:55:32.713Z,85.30
2018-11-14T05:56:32.712Z,85.50
2018-11-14T05:57:32.776Z,85.30
2018-11-14T05:58:33.092Z,84.88
2018-11-14T05:59:32.668Z,84.99
2018-11-14T06:00:32.657Z,84.78
2018-11-14T06:01:32.857Z,85.13
2018-11-14T06:02:32.693Z,85.09
2018-11-14T06:03:32.751Z,84.82
2018-11-14T06:04:32.629Z,84.20
2018-11-14T06:05:32.941Z,83.96
2018-11-14T06:06:32.594Z,84.41
2018-11-14T06:07:32.644Z,84.52
2018-11-14T06:08:32.573Z,84.10
2018-11-14T06:09:32.936Z,84.31
2018-11-14T06:10:32.553Z,84.31
2018-11-14T06:11:32.540Z,84.00
2018-11-14T06:12:32.958Z,84.31
2018-11-14T06:13:32.526Z,84.41
2018-11-14T06:14:32.509Z,84.31
2018-11-14T06:15:32.566Z,84.31
2018-11-14T06:16:32.487Z,84.31
2018-11-14T06:17:32.478Z,84.78
2018-11-14T06:18:32.466Z,85.13
2018-11-14T06:19:33.683Z,84.17
2018-11-14T06:20:32.446Z,84.10
2018-11-14T06:21:32.922Z,84.37
2018-11-14T06:22:32.424Z,85.19
2018-11-14T06:23:32.485Z,83.96
2018-11-14T06:24:32.447Z,84.68
2018-11-14T06:25:32.539Z,84.88
2018-11-14T06:26:32.933Z,84.78
2018-11-14T06:27:32.719Z,84.82
2018-11-14T06:28:32.514Z,84.92
2018-11-14T06:29:32.437Z,84.72
2018-11-14T06:30:32.409Z,85.13
2018-11-14T06:31:32.399Z,85.13
2018-11-14T06:32:32.385Z,85.44
2018-11-14T06:33:32.918Z,85.03
2018-11-14T06:34:32.351Z,85.74
2018-11-14T06:35:32.296Z,85.78
2018-11-14T06:36:32.277Z,85.85
2018-11-14T06:37:32.291Z,85.78
2018-11-14T06:38:32.300Z,86.71
2018-11-14T06:39:32.386Z,86.40
2018-11-14T06:40:32.632Z,87.12
2018-11-14T06:41:32.231Z,86.66
2018-11-14T06:42:32.213Z,86.19
2018-11-14T06:43:32.208Z,86.60
2018-11-14T06:44:32.196Z,86.60
2018-11-14T06:45:32.269Z,86.60
2018-11-14T06:46:32.170Z,86.60
2018-11-14T06:47:32.697Z,86.30
2018-11-14T06:48:32.152Z,86.60
2018-11-14T06:49:32.137Z,86.19
2018-11-14T06:50:32.128Z,86.60
2018-11-14T06:51:32.187Z,87.02
2018-11-14T06:52:33.123Z,86.81
2018-11-14T06:53:32.091Z,86.81
2018-11-14T06:54:33.067Z,86.81
2018-11-14T06:55:32.714Z,86.54
2018-11-14T06:56:32.715Z,87.67
2018-11-14T06:57:32.122Z,87.46
2018-11-14T06:58:32.055Z,87.37
2018-11-14T06:59:32.107Z,87.37
2018-11-14T07:00:32.022Z,87.46
2018-11-14T07:01:32.485Z,87.26
2018-11-14T07:02:38.334Z,87.46
2018-11-14T07:03:33.554Z,87.57
2018-11-14T07:04:32.002Z,87.98
2018-11-14T07:05:32.291Z,87.57
2018-11-14T07:06:32.395Z,87.05
2018-11-14T07:07:32.029Z,87.94
2018-11-14T07:08:32.296Z,86.81
2018-11-14T07:09:32.766Z,87.12
2018-11-14T07:10:32.016Z,87.37
2018-11-14T07:11:32.712Z,86.71
2018-11-14T07:12:31.897Z,86.81
2018-11-14T07:13:31.881Z,87.02
2018-11-14T07:14:31.889Z,86.71
2018-11-14T07:15:31.902Z,86.40
2018-11-14T07:16:31.850Z,86.71
2018-11-14T07:17:32.053Z,87.02
2018-11-14T07:18:31.829Z,86.50
2018-11-14T07:19:31.827Z,86.60
2018-11-14T07:20:32.700Z,86.30
2018-11-14T07:21:32.758Z,86.60
2018-11-14T07:22:31.788Z,86.19
2018-11-14T07:23:31.833Z,86.40
2018-11-14T07:24:31.775Z,86.40
2018-11-14T07:25:31.756Z,86.05
2018-11-14T07:26:31.754Z,86.05
2018-11-14T07:27:33.341Z,86.19
2018-11-14T07:28:31.724Z,86.19
2018-11-14T07:29:31.712Z,86.60
2018-11-14T07:30:31.701Z,86.71
2018-11-14T07:31:31.692Z,86.19
2018-11-14T07:32:31.704Z,86.71
2018-11-14T07:33:32.543Z,86.05
2018-11-14T07:34:31.659Z,86.15
2018-11-14T07:35:31.651Z,86.05
2018-11-14T07:36:31.638Z,85.95
2018-11-14T07:37:31.721Z,86.09
2018-11-14T07:38:31.618Z,86.15
2018-11-14T07:39:32.181Z,86.36
2018-11-14T07:40:31.600Z,85.13
2018-11-14T07:41:31.591Z,84.82
2018-11-14T07:42:31.574Z,84.82
2018-11-14T07:43:31.588Z,85.23
2018-11-14T07:44:31.556Z,85.13
2018-11-14T07:45:32.183Z,85.33
2018-11-14T07:46:31.533Z,85.13
2018-11-14T07:47:31.523Z,85.68
2018-11-14T07:48:31.512Z,85.23
2018-11-14T07:49:31.502Z,85.38
2018-11-14T07:50:31.489Z,85.17
2018-11-14T07:51:32.223Z,85.54
2018-11-14T07:52:31.763Z,85.68
2018-11-14T07:53:31.458Z,85.54
2018-11-14T07:54:31.497Z,85.13
2018-11-14T07:55:31.482Z,85.33
2018-11-14T07:56:31.567Z,84.92
2018-11-14T07:57:31.714Z,85.03
2018-11-14T07:58:31.466Z,84.92
2018-11-14T07:59:31.860Z,84.92
2018-11-14T08:00:31.470Z,85.03
2018-11-14T08:01:31.445Z,84.10
2018-11-14T08:02:31.421Z,84.20
2018-11-14T08:03:31.582Z,84.41
2018-11-14T08:04:31.355Z,84.41
2018-11-14T08:05:31.331Z,83.28
2018-11-14T08:06:32.671Z,83.39
2018-11-14T08:07:31.363Z,83.39
2018-11-14T08:08:31.389Z,83.39
2018-11-14T08:09:31.411Z,83.39
2018-11-14T08:10:31.278Z,83.28
2018-11-14T08:11:31.268Z,84.31
2018-11-14T08:12:31.255Z,84.20
2018-11-14T08:13:31.246Z,84.00
2018-11-14T08:14:31.235Z,83.80
2018-11-14T08:15:31.377Z,83.49
2018-11-14T08:16:31.225Z,84.31
2018-11-14T08:17:31.207Z,84.20
2018-11-14T08:18:31.277Z,84.96
2018-11-14T08:19:31.612Z,84.34
2018-11-14T08:20:31.171Z,84.04
2018-11-14T08:21:31.409Z,84.55
2018-11-14T08:22:31.151Z,84.14
2018-11-14T08:23:31.186Z,84.52
2018-11-14T08:24:31.129Z,84.00
2018-11-14T08:25:31.823Z,84.41
2018-11-14T08:26:31.383Z,83.90
2018-11-14T08:27:31.269Z,83.59
2018-11-14T08:28:31.096Z,84.20
2018-11-14T08:29:31.076Z,84.31
2018-11-14T08:30:31.277Z,83.80
2018-11-14T08:31:31.730Z,83.18
2018-11-14T08:32:31.043Z,84.41
2018-11-14T08:33:31.725Z,83.90
2018-11-14T08:34:31.024Z,83.28
2018-11-14T08:35:31.019Z,84.31
2018-11-14T08:36:31.799Z,83.39
2018-11-14T08:37:31.049Z,83.59
2018-11-14T08:38:31.067Z,84.00
2018-11-14T08:39:31.372Z,83.59
2018-11-14T08:40:30.989Z,83.49
2018-11-14T08:41:31.169Z,83.45
2018-11-14T08:42:31.149Z,83.39
2018-11-14T08:43:31.900Z,83.04
2018-11-14T08:44:31.007Z,82.63
2018-11-14T08:45:31.190Z,82.32
2018-11-14T08:46:32.320Z,83.14
2018-11-14T08:47:31.282Z,83.10
2018-11-14T08:48:31.053Z,82.01
2018-11-14T08:49:31.092Z,83.20
2018-11-14T08:50:31.379Z,82.53
2018-11-14T08:51:31.573Z,82.28
2018-11-14T08:52:30.963Z,82.08
2018-11-14T08:53:32.304Z,81.98
2018-11-14T08:54:30.811Z,81.87
2018-11-14T08:55:30.849Z,81.87
2018-11-14T08:56:30.800Z,81.46
2018-11-14T08:57:30.910Z,81.77
2018-11-14T08:58:30.774Z,81.98
2018-11-14T08:59:30.759Z,81.57
2018-11-14T09:00:31.121Z,81.73
2018-11-14T09:01:30.814Z,81.63
2018-11-14T09:02:30.851Z,80.46
2018-11-14T09:03:30.835Z,81.63
2018-11-14T09:04:31.699Z,80.98
2018-11-14T09:05:30.695Z,79.96
2018-11-14T09:06:30.801Z,80.16
2018-11-14T09:07:31.175Z,79.96
2018-11-14T09:08:30.664Z,80.57
2018-11-14T09:09:30.798Z,79.71
2018-11-14T09:10:30.645Z,78.79
2018-11-14T09:11:30.637Z,77.63
2018-11-14T09:12:30.700Z,78.14
2018-11-14T09:13:30.631Z,77.94
2018-11-14T09:14:30.944Z,77.73
2018-11-14T09:15:30.666Z,78.34
2018-11-14T09:16:30.590Z,78.24
2018-11-14T09:17:30.574Z,78.34
2018-11-14T09:18:31.321Z,78.34
2018-11-14T09:19:30.659Z,78.65
2018-11-14T09:20:30.562Z,78.34
2018-11-14T09:21:31.796Z,78.24
2018-11-14T09:22:30.589Z,78.31
2018-11-14T09:23:30.595Z,78.31
2018-11-14T09:24:30.623Z,78.00
2018-11-14T09:25:30.716Z,78.20
2018-11-14T09:26:30.554Z,77.80
2018-11-14T09:27:30.732Z,78.11
2018-11-14T09:28:30.617Z,77.49
2018-11-14T09:29:30.505Z,78.00
2018-11-14T09:30:30.439Z,78.20
2018-11-14T09:31:30.422Z,77.90
2018-11-14T09:32:30.448Z,77.49
2018-11-14T09:33:30.442Z,78.00
2018-11-14T09:34:30.447Z,77.59
2018-11-14T09:35:30.382Z,78.31
2018-11-14T09:36:30.571Z,77.80
2018-11-14T09:37:30.435Z,77.70
2018-11-14T09:38:30.363Z,78.31
2018-11-14T09:39:30.616Z,78.41
2018-11-14T09:40:31.658Z,78.11
2018-11-14T09:41:30.478Z,78.20
2018-11-14T09:42:32.161Z,78.00
2018-11-14T09:43:30.516Z,78.41
2018-11-14T09:44:31.433Z,78.41
2018-11-14T09:45:31.026Z,79.02
2018-11-14T09:46:30.795Z,78.52
2018-11-14T09:47:30.604Z,78.82
2018-11-14T09:48:30.327Z,78.20
2018-11-14T09:49:30.547Z,78.41
2018-11-14T09:50:30.481Z,79.43
2018-11-14T09:51:30.546Z,78.52
2018-11-14T09:52:30.208Z,79.02
2018-11-14T09:53:30.201Z,78.72
2018-11-14T09:54:30.751Z,78.31
2018-11-14T09:55:30.211Z,77.86
2018-11-14T09:56:30.296Z,77.15
2018-11-14T09:57:30.436Z,78.00
2018-11-14T09:58:30.792Z,78.38
2018-11-14T09:59:30.193Z,77.97
2018-11-14T10:00:30.364Z,78.27
2018-11-14T10:01:30.785Z,77.86
2018-11-14T10:02:30.318Z,78.17
2018-11-14T10:03:30.737Z,77.35
2018-11-14T10:04:30.766Z,77.86
2018-11-14T10:05:30.572Z,77.76
2018-11-14T10:06:30.228Z,77.11
2018-11-14T10:07:31.175Z,77.01
2018-11-14T10:08:30.709Z,77.08
2018-11-14T10:09:30.404Z,76.77
2018-11-14T10:10:30.145Z,77.14
2018-11-14T10:11:30.837Z,76.12
2018-11-14T10:12:30.135Z,75.20
2018-11-14T10:13:30.320Z,75.71
2018-11-14T10:14:30.098Z,75.41
2018-11-14T10:15:30.444Z,75.88
2018-11-14T10:16:30.286Z,75.41
2018-11-14T10:17:30.049Z,75.16
2018-11-14T10:18:30.523Z,74.76
2018-11-14T10:19:30.293Z,75.88
2018-11-14T10:20:30.697Z,75.74
2018-11-14T10:21:31.683Z,75.07
2018-11-14T10:22:30.690Z,75.07
2018-11-14T10:23:29.885Z,75.88
2018-11-14T10:24:29.873Z,75.57
2018-11-14T10:25:30.405Z,75.07
2018-11-14T10:26:29.984Z,75.68
2018-11-14T10:27:30.363Z,75.78
2018-11-14T10:28:29.971Z,75.16
2018-11-14T10:29:30.178Z,75.68
2018-11-14T10:30:30.332Z,75.37
2018-11-14T10:31:30.259Z,74.96
2018-11-14T10:32:30.653Z,75.78
2018-11-14T10:33:30.133Z,75.68
2018-11-14T10:34:29.870Z,75.16
2018-11-14T10:35:29.807Z,74.96
2018-11-14T10:36:29.828Z,74.62
2018-11-14T10:37:29.767Z,74.66
2018-11-14T10:38:30.354Z,75.16
2018-11-14T10:39:30.492Z,75.07
2018-11-14T10:40:30.890Z,75.68
2018-11-14T10:41:29.851Z,74.86
2018-11-14T10:42:29.978Z,74.76
2018-11-14T10:43:29.826Z,74.42
2018-11-14T10:44:29.945Z,74.73
2018-11-14T10:45:30.421Z,73.81
2018-11-14T10:46:29.708Z,73.81
2018-11-14T10:47:29.637Z,73.91
2018-11-14T10:48:29.761Z,73.19
2018-11-14T10:49:29.752Z,72.58
2018-11-14T10:50:29.784Z,72.89
2018-11-14T10:51:30.785Z,72.99
2018-11-14T10:52:29.603Z,72.65
2018-11-14T10:53:29.574Z,72.65
2018-11-14T10:54:29.595Z,72.86
2018-11-14T10:55:29.764Z,72.65
2018-11-14T10:56:29.699Z,72.01
2018-11-14T10:57:30.649Z,72.24
2018-11-14T10:58:30.116Z,72.21
2018-11-14T10:59:29.636Z,72.24
2018-11-14T11:00:29.571Z,72.34
2018-11-14T11:01:29.626Z,72.11
2018-11-14T11:02:31.397Z,71.84
2018-11-14T11:03:30.212Z,72.04
2018-11-14T11:04:30.573Z,72.24
2018-11-14T11:05:29.652Z,72.21
2018-11-14T11:06:29.425Z,72.21
2018-11-14T11:07:30.649Z,72.11
2018-11-14T11:08:29.527Z,71.47
2018-11-14T11:09:29.875Z,71.47
2018-11-14T11:10:29.404Z,70.95
2018-11-14T11:11:29.701Z,70.34
2018-11-14T11:12:29.549Z,70.21
2018-11-14T11:13:29.378Z,70.24
2018-11-14T11:14:29.342Z,70.41
2018-11-14T11:15:29.732Z,70.21
2018-11-14T11:16:29.826Z,70.41
2018-11-14T11:17:29.311Z,69.70
2018-11-14T11:18:29.296Z,70.10
2018-11-14T11:19:29.499Z,70.51
2018-11-14T11:20:29.328Z,70.28
2018-11-14T11:21:29.625Z,69.53
2018-11-14T11:22:29.266Z,69.84
2018-11-14T11:23:29.935Z,69.23
2018-11-14T11:24:29.293Z,69.64
2018-11-14T11:25:29.375Z,69.64
2018-11-14T11:26:29.387Z,69.23
2018-11-14T11:27:29.374Z,68.25
2018-11-14T11:28:29.789Z,68.08
2018-11-14T11:29:29.525Z,68.08
2018-11-14T11:30:29.682Z,68.28
2018-11-14T11:31:29.881Z,67.71
2018-11-14T11:32:29.189Z,69.02
2018-11-14T11:33:29.493Z,69.67
2018-11-14T11:34:29.366Z,69.74
2018-11-14T11:35:29.298Z,69.13
2018-11-14T11:36:29.168Z,65.85
2018-11-14T11:37:29.583Z,62.96
2018-11-14T11:38:29.213Z,57.91
2018-11-14T11:39:29.586Z,55.51
2018-11-14T11:40:29.064Z,55.24
2018-11-14T11:41:29.144Z,53.17
2018-11-14T11:42:29.234Z,54.50
2018-11-14T11:43:30.060Z,53.40
2018-11-14T11:44:29.770Z,48.91
2018-11-14T11:45:29.687Z,47.49
2018-11-14T11:46:29.047Z,46.86
2018-11-14T11:47:29.773Z,47.73
2018-11-14T11:48:28.987Z,49.43
2018-11-14T11:49:29.021Z,49.16
2018-11-14T11:50:29.003Z,46.78
2018-11-14T11:51:30.750Z,46.62
2018-11-14T11:52:29.050Z,44.79
2018-11-14T11:53:29.700Z,46.12
2018-11-14T11:54:29.219Z,46.56
2018-11-14T11:55:29.373Z,44.82
2018-11-14T11:56:29.934Z,48.90
2018-11-14T11:57:31.207Z,49.33
2018-11-14T11:58:29.351Z,52.17
2018-11-14T11:59:29.079Z,51.73
2018-11-14T12:00:29.282Z,49.77
2018-11-14T12:01:28.893Z,50.28
2018-11-14T12:02:28.929Z,49.13
2018-11-14T12:03:29.413Z,50.35
2018-11-14T12:04:28.874Z,50.40
2018-11-14T12:05:29.325Z,50.96
2018-11-14T12:06:29.169Z,51.46
2018-11-14T12:07:28.797Z,51.03
2018-11-14T12:08:29.472Z,53.25
2018-11-14T12:09:29.958Z,52.69
2018-11-14T12:10:28.909Z,52.80
2018-11-14T12:11:28.824Z,51.21
2018-11-14T12:12:29.262Z,48.55
2018-11-14T12:13:28.743Z,46.36
2018-11-14T12:14:28.727Z,46.23
2018-11-14T12:15:29.286Z,48.22
2018-11-14T12:16:44.901Z,50.46
2018-11-14T12:17:28.812Z,48.63
2018-11-14T12:18:29.234Z,48.43
2018-11-14T12:19:28.837Z,49.15
2018-11-14T12:20:28.844Z,50.00
2018-11-14T12:21:28.953Z,50.63
2018-11-14T12:22:28.852Z,51.79
2018-11-14T12:23:28.780Z,54.51
2018-11-14T12:24:28.748Z,58.44
2018-11-14T12:25:29.772Z,62.20
2018-11-14T12:26:28.639Z,63.55
2018-11-14T12:27:29.575Z,64.90
2018-11-14T12:28:28.755Z,65.13
2018-11-14T12:29:29.303Z,66.08
2018-11-14T12:30:30.123Z,66.18
2018-11-14T12:31:28.602Z,65.57
2018-11-14T12:32:29.001Z,67.87
2018-11-14T12:33:29.264Z,67.39
2018-11-14T12:34:28.654Z,68.34
2018-11-14T12:35:28.602Z,68.41
2018-11-14T12:36:28.850Z,68.34
2018-11-14T12:37:28.562Z,70.04
2018-11-14T12:38:28.824Z,70.65
2018-11-14T12:39:29.515Z,70.65
2018-11-14T12:40:28.578Z,70.34
2018-11-14T12:41:28.479Z,70.04
2018-11-14T12:42:28.586Z,71.39
2018-11-14T12:43:29.009Z,71.19
2018-11-14T12:44:28.537Z,71.36
2018-11-14T12:45:28.900Z,71.06
2018-11-14T12:46:28.896Z,71.36
2018-11-14T12:47:28.479Z,70.75
2018-11-14T12:48:29.392Z,70.65
2018-11-14T12:49:28.466Z,71.77
2018-11-14T12:50:28.506Z,72.17
2018-11-14T12:51:29.194Z,70.85
2018-11-14T12:52:28.513Z,72.52
2018-11-14T12:53:29.763Z,72.41
2018-11-14T12:54:28.386Z,72.62
2018-11-14T12:55:28.557Z,73.03